sensor_id;sensor_type;location;lat;lon;timestamp;temperature;humidity
29345;DHT22;16339;48.748;2.222;2024-01-30T00:01:27;11.60;99.90
29345;DHT22;16339;48.748;2.222;2024-01-30T00:03:58;11.60;99.90
29345;DHT22;16339;48.748;2.222;2024-01-30T00:06:27;11.60;99.90
29345;DHT22;16339;48.748;2.222;2024-01-30T00:08:55;11.60;99.90
29345;DHT22;16339;48.748;2.222;2024-01-30T00:11:24;11.60;99.90
29345;DHT22;16339;48.748;2.222;2024-01-30T00:13:53;11.70;99.90
29345;DHT22;16339;48.748;2.222;2024-01-30T00:16:22;11.60;99.90
29345;DHT22;16339;48.748;2.222;2024-01-30T00:18:50;11.60;99.90
29345;DHT22;16339;48.748;2.222;2024-01-30T00:21:21;11.60;99.90
29345;DHT22;16339;48.748;2.222;2024-01-30T00:23:52;11.70;99.90
29345;DHT22;16339;48.748;2.222;2024-01-30T00:26:21;11.70;99.90
29345;DHT22;16339;48.748;2.222;2024-01-30T00:28:49;11.70;99.90
29345;DHT22;16339;48.748;2.222;2024-01-30T00:31:18;11.70;99.90
29345;DHT22;16339;48.748;2.222;2024-01-30T00:33:46;11.70;99.90
29345;DHT22;16339;48.748;2.222;2024-01-30T00:36:14;11.60;99.90
29345;DHT22;16339;48.748;2.222;2024-01-30T00:38:45;11.60;99.90
29345;DHT22;16339;48.748;2.222;2024-01-30T00:41:14;11.60;99.90
29345;DHT22;16339;48.748;2.222;2024-01-30T00:43:42;11.60;99.90
29345;DHT22;16339;48.748;2.222;2024-01-30T00:46:11;11.60;99.90
29345;DHT22;16339;48.748;2.222;2024-01-30T00:48:39;11.60;99.90
29345;DHT22;16339;48.748;2.222;2024-01-30T00:51:07;11.70;99.90
29345;DHT22;16339;48.748;2.222;2024-01-30T00:53:37;11.70;99.90
29345;DHT22;16339;48.748;2.222;2024-01-30T00:56:09;11.70;99.90
29345;DHT22;16339;48.748;2.222;2024-01-30T00:58:38;11.70;99.90
29345;DHT22;16339;48.748;2.222;2024-01-30T01:01:06;11.70;99.90
29345;DHT22;16339;48.748;2.222;2024-01-30T01:03:35;11.70;99.90
29345;DHT22;16339;48.748;2.222;2024-01-30T01:06:06;11.70;99.90
29345;DHT22;16339;48.748;2.222;2024-01-30T01:08:34;11.70;99.90
29345;DHT22;16339;48.748;2.222;2024-01-30T01:11:04;11.70;99.90
29345;DHT22;16339;48.748;2.222;2024-01-30T01:13:35;11.70;99.90
29345;DHT22;16339;48.748;2.222;2024-01-30T01:16:04;11.80;99.90
29345;DHT22;16339;48.748;2.222;2024-01-30T01:18:33;11.80;99.90
29345;DHT22;16339;48.748;2.222;2024-01-30T01:21:01;11.80;99.90
29345;DHT22;16339;48.748;2.222;2024-01-30T01:23:30;11.90;99.90
29345;DHT22;16339;48.748;2.222;2024-01-30T01:25:58;11.90;99.90
29345;DHT22;16339;48.748;2.222;2024-01-30T01:28:27;12.00;99.90
29345;DHT22;16339;48.748;2.222;2024-01-30T01:30:58;12.00;99.90
29345;DHT22;16339;48.748;2.222;2024-01-30T01:33:30;12.00;99.90
29345;DHT22;16339;48.748;2.222;2024-01-30T01:35:59;12.10;99.90
29345;DHT22;16339;48.748;2.222;2024-01-30T01:38:27;12.10;99.90
29345;DHT22;16339;48.748;2.222;2024-01-30T01:40:56;12.10;99.90
29345;DHT22;16339;48.748;2.222;2024-01-30T01:43:27;12.10;99.90
29345;DHT22;16339;48.748;2.222;2024-01-30T01:45:55;12.10;99.90
29345;DHT22;16339;48.748;2.222;2024-01-30T01:48:26;12.10;99.90
29345;DHT22;16339;48.748;2.222;2024-01-30T01:50:55;12.10;99.90
29345;DHT22;16339;48.748;2.222;2024-01-30T01:53:23;12.10;99.90
29345;DHT22;16339;48.748;2.222;2024-01-30T01:55:51;12.20;99.90
29345;DHT22;16339;48.748;2.222;2024-01-30T01:58:21;12.10;99.90
29345;DHT22;16339;48.748;2.222;2024-01-30T02:00:50;12.20;99.90
29345;DHT22;16339;48.748;2.222;2024-01-30T02:03:18;12.10;99.90
29345;DHT22;16339;48.748;2.222;2024-01-30T02:05:51;12.10;99.90
29345;DHT22;16339;48.748;2.222;2024-01-30T02:08:20;12.10;99.90
29345;DHT22;16339;48.748;2.222;2024-01-30T02:10:48;12.10;99.90
29345;DHT22;16339;48.748;2.222;2024-01-30T02:13:17;12.10;99.90
29345;DHT22;16339;48.748;2.222;2024-01-30T02:15:48;12.20;99.90
29345;DHT22;16339;48.748;2.222;2024-01-30T02:18:17;12.20;99.90
29345;DHT22;16339;48.748;2.222;2024-01-30T02:20:45;12.20;99.90
29345;DHT22;16339;48.748;2.222;2024-01-30T02:23:17;12.20;99.90
29345;DHT22;16339;48.748;2.222;2024-01-30T02:25:45;12.20;99.90
29345;DHT22;16339;48.748;2.222;2024-01-30T02:28:16;12.20;99.90
29345;DHT22;16339;48.748;2.222;2024-01-30T02:30:44;12.20;99.90
29345;DHT22;16339;48.748;2.222;2024-01-30T02:33:13;12.20;99.90
29345;DHT22;16339;48.748;2.222;2024-01-30T02:35:41;12.20;99.90
29345;DHT22;16339;48.748;2.222;2024-01-30T02:38:10;12.20;99.90
29345;DHT22;16339;48.748;2.222;2024-01-30T02:40:41;12.20;99.90
29345;DHT22;16339;48.748;2.222;2024-01-30T02:43:09;12.20;99.90
29345;DHT22;16339;48.748;2.222;2024-01-30T02:45:38;12.10;99.90
29345;DHT22;16339;48.748;2.222;2024-01-30T02:48:06;12.10;99.90
29345;DHT22;16339;48.748;2.222;2024-01-30T02:50:35;12.10;99.90
29345;DHT22;16339;48.748;2.222;2024-01-30T02:53:03;12.10;99.90
29345;DHT22;16339;48.748;2.222;2024-01-30T02:55:32;12.10;99.90
29345;DHT22;16339;48.748;2.222;2024-01-30T02:58:03;12.10;99.90
29345;DHT22;16339;48.748;2.222;2024-01-30T03:00:29;12.00;99.90
29345;DHT22;16339;48.748;2.222;2024-01-30T03:02:57;12.10;99.90
29345;DHT22;16339;48.748;2.222;2024-01-30T03:05:25;12.10;99.90
29345;DHT22;16339;48.748;2.222;2024-01-30T03:07:54;12.10;99.90
29345;DHT22;16339;48.748;2.222;2024-01-30T03:10:22;12.00;99.90
29345;DHT22;16339;48.748;2.222;2024-01-30T03:12:53;12.00;99.90
29345;DHT22;16339;48.748;2.222;2024-01-30T03:15:31;11.90;99.90
29345;DHT22;16339;48.748;2.222;2024-01-30T03:18:01;12.00;99.90
29345;DHT22;16339;48.748;2.222;2024-01-30T03:20:30;12.00;99.90
29345;DHT22;16339;48.748;2.222;2024-01-30T03:22:59;12.00;99.90
29345;DHT22;16339;48.748;2.222;2024-01-30T03:25:28;11.90;99.90
29345;DHT22;16339;48.748;2.222;2024-01-30T03:27:56;11.90;99.90
29345;DHT22;16339;48.748;2.222;2024-01-30T03:30:29;11.90;99.90
29345;DHT22;16339;48.748;2.222;2024-01-30T03:32:59;11.90;99.90
29345;DHT22;16339;48.748;2.222;2024-01-30T03:35:27;11.90;99.90
29345;DHT22;16339;48.748;2.222;2024-01-30T03:37:55;11.90;99.90
29345;DHT22;16339;48.748;2.222;2024-01-30T03:40:24;11.90;99.90
29345;DHT22;16339;48.748;2.222;2024-01-30T03:42:52;11.90;99.90
29345;DHT22;16339;48.748;2.222;2024-01-30T03:45:21;11.90;99.90
29345;DHT22;16339;48.748;2.222;2024-01-30T03:47:52;11.90;99.90
29345;DHT22;16339;48.748;2.222;2024-01-30T03:50:20;12.00;99.90
29345;DHT22;16339;48.748;2.222;2024-01-30T03:52:48;12.00;99.90
29345;DHT22;16339;48.748;2.222;2024-01-30T03:55:17;11.90;99.90
29345;DHT22;16339;48.748;2.222;2024-01-30T03:57:45;11.90;99.90
29345;DHT22;16339;48.748;2.222;2024-01-30T04:00:14;11.90;99.90
29345;DHT22;16339;48.748;2.222;2024-01-30T04:02:42;12.00;99.90
29345;DHT22;16339;48.748;2.222;2024-01-30T04:05:13;12.00;99.90
29345;DHT22;16339;48.748;2.222;2024-01-30T04:07:42;12.00;99.90
29345;DHT22;16339;48.748;2.222;2024-01-30T04:10:11;12.00;99.90
29345;DHT22;16339;48.748;2.222;2024-01-30T04:12:39;12.00;99.90
29345;DHT22;16339;48.748;2.222;2024-01-30T04:15:07;12.00;99.90
29345;DHT22;16339;48.748;2.222;2024-01-30T04:17:36;12.00;99.90
29345;DHT22;16339;48.748;2.222;2024-01-30T04:20:05;12.00;99.90
29345;DHT22;16339;48.748;2.222;2024-01-30T04:22:37;12.00;99.90
29345;DHT22;16339;48.748;2.222;2024-01-30T04:25:05;12.00;99.90
29345;DHT22;16339;48.748;2.222;2024-01-30T04:27:34;11.90;99.90
29345;DHT22;16339;48.748;2.222;2024-01-30T04:30:02;12.00;99.90
29345;DHT22;16339;48.748;2.222;2024-01-30T04:32:31;12.00;99.90
29345;DHT22;16339;48.748;2.222;2024-01-30T04:34:59;12.00;99.90
29345;DHT22;16339;48.748;2.222;2024-01-30T04:37:28;12.00;99.90
29345;DHT22;16339;48.748;2.222;2024-01-30T04:39:59;12.00;99.90
29345;DHT22;16339;48.748;2.222;2024-01-30T04:42:28;12.10;99.90
29345;DHT22;16339;48.748;2.222;2024-01-30T04:44:56;12.00;99.90
29345;DHT22;16339;48.748;2.222;2024-01-30T04:47:25;12.00;99.90
29345;DHT22;16339;48.748;2.222;2024-01-30T04:49:55;12.10;99.90
29345;DHT22;16339;48.748;2.222;2024-01-30T04:52:23;12.10;99.90
29345;DHT22;16339;48.748;2.222;2024-01-30T04:54:52;12.10;99.90
29345;DHT22;16339;48.748;2.222;2024-01-30T04:57:23;12.10;99.90
29345;DHT22;16339;48.748;2.222;2024-01-30T04:59:51;12.10;99.90
29345;DHT22;16339;48.748;2.222;2024-01-30T05:02:20;12.10;99.90
29345;DHT22;16339;48.748;2.222;2024-01-30T05:04:48;12.10;99.90
29345;DHT22;16339;48.748;2.222;2024-01-30T05:07:17;12.10;99.90
29345;DHT22;16339;48.748;2.222;2024-01-30T05:09:45;12.10;99.90
29345;DHT22;16339;48.748;2.222;2024-01-30T05:12:14;12.10;99.90
29345;DHT22;16339;48.748;2.222;2024-01-30T05:14:44;12.10;99.90
29345;DHT22;16339;48.748;2.222;2024-01-30T05:17:13;12.10;99.90
29345;DHT22;16339;48.748;2.222;2024-01-30T05:19:42;12.10;99.90
29345;DHT22;16339;48.748;2.222;2024-01-30T05:22:10;12.10;99.90
29345;DHT22;16339;48.748;2.222;2024-01-30T05:24:40;12.20;99.90
29345;DHT22;16339;48.748;2.222;2024-01-30T05:27:09;12.20;99.90
29345;DHT22;16339;48.748;2.222;2024-01-30T05:29:38;12.20;99.90
29345;DHT22;16339;48.748;2.222;2024-01-30T05:32:09;12.20;99.90
29345;DHT22;16339;48.748;2.222;2024-01-30T05:34:38;12.20;99.90
29345;DHT22;16339;48.748;2.222;2024-01-30T05:37:07;12.20;99.90
29345;DHT22;16339;48.748;2.222;2024-01-30T05:39:39;12.30;99.90
29345;DHT22;16339;48.748;2.222;2024-01-30T05:42:08;12.30;99.90
29345;DHT22;16339;48.748;2.222;2024-01-30T05:44:36;12.30;99.90
29345;DHT22;16339;48.748;2.222;2024-01-30T05:47:04;12.30;99.90
29345;DHT22;16339;48.748;2.222;2024-01-30T05:49:35;12.30;99.90
29345;DHT22;16339;48.748;2.222;2024-01-30T05:52:05;12.30;99.90
29345;DHT22;16339;48.748;2.222;2024-01-30T05:54:33;12.40;99.90
29345;DHT22;16339;48.748;2.222;2024-01-30T05:57:02;12.40;99.90
29345;DHT22;16339;48.748;2.222;2024-01-30T05:59:31;12.40;99.90
29345;DHT22;16339;48.748;2.222;2024-01-30T06:02:03;12.40;99.90
29345;DHT22;16339;48.748;2.222;2024-01-30T06:04:32;12.40;99.90
29345;DHT22;16339;48.748;2.222;2024-01-30T06:07:03;12.50;99.90
29345;DHT22;16339;48.748;2.222;2024-01-30T06:09:31;12.50;99.90
29345;DHT22;16339;48.748;2.222;2024-01-30T06:12:00;12.50;99.90
29345;DHT22;16339;48.748;2.222;2024-01-30T06:14:30;12.60;99.90
29345;DHT22;16339;48.748;2.222;2024-01-30T06:16:58;12.50;99.90
29345;DHT22;16339;48.748;2.222;2024-01-30T06:19:26;12.40;99.90
29345;DHT22;16339;48.748;2.222;2024-01-30T06:21:56;12.40;99.90
29345;DHT22;16339;48.748;2.222;2024-01-30T06:24:33;12.50;99.90
29345;DHT22;16339;48.748;2.222;2024-01-30T06:27:03;12.50;99.90
29345;DHT22;16339;48.748;2.222;2024-01-30T06:29:32;12.40;99.90
29345;DHT22;16339;48.748;2.222;2024-01-30T06:32:00;12.50;99.90
29345;DHT22;16339;48.748;2.222;2024-01-30T06:34:29;12.60;99.90
29345;DHT22;16339;48.748;2.222;2024-01-30T06:36:57;12.30;99.90
29345;DHT22;16339;48.748;2.222;2024-01-30T06:39:25;12.30;99.90
29345;DHT22;16339;48.748;2.222;2024-01-30T06:41:56;12.50;99.90
29345;DHT22;16339;48.748;2.222;2024-01-30T06:44:25;12.50;99.90
29345;DHT22;16339;48.748;2.222;2024-01-30T06:46:58;12.50;99.90
29345;DHT22;16339;48.748;2.222;2024-01-30T06:49:26;12.50;99.90
29345;DHT22;16339;48.748;2.222;2024-01-30T06:51:54;12.50;99.90
29345;DHT22;16339;48.748;2.222;2024-01-30T06:54:23;12.40;99.90
29345;DHT22;16339;48.748;2.222;2024-01-30T06:56:51;12.50;99.90
29345;DHT22;16339;48.748;2.222;2024-01-30T06:59:23;12.30;99.90
29345;DHT22;16339;48.748;2.222;2024-01-30T07:01:52;12.40;99.90
29345;DHT22;16339;48.748;2.222;2024-01-30T07:04:21;12.20;99.90
29345;DHT22;16339;48.748;2.222;2024-01-30T07:06:50;12.40;99.90
29345;DHT22;16339;48.748;2.222;2024-01-30T07:09:18;12.50;99.90
29345;DHT22;16339;48.748;2.222;2024-01-30T07:11:48;12.50;99.90
29345;DHT22;16339;48.748;2.222;2024-01-30T07:14:17;12.60;99.90
29345;DHT22;16339;48.748;2.222;2024-01-30T07:16:48;12.40;99.90
29345;DHT22;16339;48.748;2.222;2024-01-30T07:19:16;12.40;99.90
29345;DHT22;16339;48.748;2.222;2024-01-30T07:21:45;12.40;99.90
29345;DHT22;16339;48.748;2.222;2024-01-30T07:24:13;12.50;99.90
29345;DHT22;16339;48.748;2.222;2024-01-30T07:26:42;12.60;99.90
29345;DHT22;16339;48.748;2.222;2024-01-30T07:29:12;12.60;99.90
29345;DHT22;16339;48.748;2.222;2024-01-30T07:31:40;12.70;99.90
29345;DHT22;16339;48.748;2.222;2024-01-30T07:34:11;12.70;99.90
29345;DHT22;16339;48.748;2.222;2024-01-30T07:36:40;12.60;99.90
29345;DHT22;16339;48.748;2.222;2024-01-30T07:39:08;12.70;99.90
29345;DHT22;16339;48.748;2.222;2024-01-30T07:41:37;12.80;99.90
29345;DHT22;16339;48.748;2.222;2024-01-30T07:44:06;12.80;99.90
29345;DHT22;16339;48.748;2.222;2024-01-30T07:46:34;12.90;99.90
29345;DHT22;16339;48.748;2.222;2024-01-30T07:49:02;12.90;99.90
29345;DHT22;16339;48.748;2.222;2024-01-30T07:51:33;12.90;99.90
29345;DHT22;16339;48.748;2.222;2024-01-30T07:54:02;12.90;99.90
29345;DHT22;16339;48.748;2.222;2024-01-30T07:56:28;12.90;99.90
29345;DHT22;16339;48.748;2.222;2024-01-30T07:58:56;12.90;99.90
29345;DHT22;16339;48.748;2.222;2024-01-30T08:01:25;12.90;99.90
29345;DHT22;16339;48.748;2.222;2024-01-30T08:03:53;12.80;99.90
29345;DHT22;16339;48.748;2.222;2024-01-30T08:06:22;12.90;99.90
29345;DHT22;16339;48.748;2.222;2024-01-30T08:08:53;12.80;99.90
29345;DHT22;16339;48.748;2.222;2024-01-30T08:11:22;12.90;99.90
29345;DHT22;16339;48.748;2.222;2024-01-30T08:13:52;13.00;99.90
29345;DHT22;16339;48.748;2.222;2024-01-30T08:16:22;12.90;99.90
29345;DHT22;16339;48.748;2.222;2024-01-30T08:18:52;13.00;99.90
29345;DHT22;16339;48.748;2.222;2024-01-30T08:21:23;13.00;99.90
29345;DHT22;16339;48.748;2.222;2024-01-30T08:23:54;12.90;99.90
29345;DHT22;16339;48.748;2.222;2024-01-30T08:26:22;12.90;99.90
29345;DHT22;16339;48.748;2.222;2024-01-30T08:28:51;12.90;99.90
29345;DHT22;16339;48.748;2.222;2024-01-30T08:31:20;13.00;99.90
29345;DHT22;16339;48.748;2.222;2024-01-30T08:33:48;13.00;99.90
29345;DHT22;16339;48.748;2.222;2024-01-30T08:36:17;13.10;99.90
29345;DHT22;16339;48.748;2.222;2024-01-30T08:38:45;13.10;99.90
29345;DHT22;16339;48.748;2.222;2024-01-30T08:41:16;13.00;99.90
29345;DHT22;16339;48.748;2.222;2024-01-30T08:43:45;13.00;99.90
29345;DHT22;16339;48.748;2.222;2024-01-30T08:46:18;13.10;99.90
29345;DHT22;16339;48.748;2.222;2024-01-30T08:48:47;13.10;99.90
29345;DHT22;16339;48.748;2.222;2024-01-30T08:51:15;13.10;99.90
29345;DHT22;16339;48.748;2.222;2024-01-30T08:53:44;13.10;99.90
29345;DHT22;16339;48.748;2.222;2024-01-30T08:56:12;13.20;99.90
29345;DHT22;16339;48.748;2.222;2024-01-30T08:58:44;13.10;99.90
29345;DHT22;16339;48.748;2.222;2024-01-30T09:01:12;13.20;99.90
29345;DHT22;16339;48.748;2.222;2024-01-30T09:03:42;13.20;99.90
29345;DHT22;16339;48.748;2.222;2024-01-30T09:06:12;13.20;99.90
29345;DHT22;16339;48.748;2.222;2024-01-30T09:08:42;13.20;99.90
29345;DHT22;16339;48.748;2.222;2024-01-30T09:11:14;13.10;99.90
29345;DHT22;16339;48.748;2.222;2024-01-30T09:13:45;13.20;99.90
29345;DHT22;16339;48.748;2.222;2024-01-30T09:16:13;13.20;99.90
29345;DHT22;16339;48.748;2.222;2024-01-30T09:18:42;13.20;99.90
29345;DHT22;16339;48.748;2.222;2024-01-30T09:21:11;13.20;99.90
29345;DHT22;16339;48.748;2.222;2024-01-30T09:23:39;13.20;99.90
29345;DHT22;16339;48.748;2.222;2024-01-30T09:26:07;13.10;99.90
29345;DHT22;16339;48.748;2.222;2024-01-30T09:28:37;13.10;99.90
29345;DHT22;16339;48.748;2.222;2024-01-30T09:31:12;13.20;99.90
29345;DHT22;16339;48.748;2.222;2024-01-30T09:33:40;13.20;99.90
29345;DHT22;16339;48.748;2.222;2024-01-30T09:36:09;13.10;99.90
29345;DHT22;16339;48.748;2.222;2024-01-30T09:38:40;13.20;99.90
29345;DHT22;16339;48.748;2.222;2024-01-30T09:41:09;13.20;99.90
29345;DHT22;16339;48.748;2.222;2024-01-30T09:43:38;13.10;99.90
29345;DHT22;16339;48.748;2.222;2024-01-30T09:46:07;13.10;99.90
29345;DHT22;16339;48.748;2.222;2024-01-30T09:48:41;13.10;99.90
29345;DHT22;16339;48.748;2.222;2024-01-30T09:51:10;13.10;99.90
29345;DHT22;16339;48.748;2.222;2024-01-30T09:53:41;13.20;99.90
29345;DHT22;16339;48.748;2.222;2024-01-30T09:56:12;13.00;99.90
29345;DHT22;16339;48.748;2.222;2024-01-30T09:58:40;13.10;99.90
29345;DHT22;16339;48.748;2.222;2024-01-30T10:01:08;13.20;99.90
29345;DHT22;16339;48.748;2.222;2024-01-30T10:03:37;13.20;99.90
29345;DHT22;16339;48.748;2.222;2024-01-30T10:06:08;13.30;99.90
29345;DHT22;16339;48.748;2.222;2024-01-30T10:08:37;13.30;99.90
29345;DHT22;16339;48.748;2.222;2024-01-30T10:11:05;13.40;99.90
29345;DHT22;16339;48.748;2.222;2024-01-30T10:13:34;13.30;99.90
29345;DHT22;16339;48.748;2.222;2024-01-30T10:16:02;13.30;99.90
29345;DHT22;16339;48.748;2.222;2024-01-30T10:18:32;13.40;99.90
29345;DHT22;16339;48.748;2.222;2024-01-30T10:21:01;13.40;99.90
29345;DHT22;16339;48.748;2.222;2024-01-30T10:23:36;13.50;99.90
29345;DHT22;16339;48.748;2.222;2024-01-30T10:26:06;13.50;99.90
29345;DHT22;16339;48.748;2.222;2024-01-30T10:28:35;13.50;99.90
29345;DHT22;16339;48.748;2.222;2024-01-30T10:31:04;13.50;99.90
29345;DHT22;16339;48.748;2.222;2024-01-30T10:33:34;13.50;99.90
29345;DHT22;16339;48.748;2.222;2024-01-30T10:36:03;13.30;99.90
29345;DHT22;16339;48.748;2.222;2024-01-30T10:38:32;13.40;99.90
29345;DHT22;16339;48.748;2.222;2024-01-30T10:41:03;13.50;99.90
29345;DHT22;16339;48.748;2.222;2024-01-30T10:43:35;13.50;99.90
29345;DHT22;16339;48.748;2.222;2024-01-30T10:46:09;13.60;99.90
29345;DHT22;16339;48.748;2.222;2024-01-30T10:48:41;13.60;99.90
29345;DHT22;16339;48.748;2.222;2024-01-30T10:51:10;13.60;99.90
29345;DHT22;16339;48.748;2.222;2024-01-30T10:53:39;13.50;99.90
29345;DHT22;16339;48.748;2.222;2024-01-30T10:56:11;13.60;99.90
29345;DHT22;16339;48.748;2.222;2024-01-30T10:58:42;13.50;99.90
29345;DHT22;16339;48.748;2.222;2024-01-30T11:01:10;13.60;99.90
29345;DHT22;16339;48.748;2.222;2024-01-30T11:03:37;13.70;99.90
29345;DHT22;16339;48.748;2.222;2024-01-30T11:06:10;13.50;99.90
29345;DHT22;16339;48.748;2.222;2024-01-30T11:08:39;13.60;99.90
29345;DHT22;16339;48.748;2.222;2024-01-30T11:11:14;13.80;99.90
29345;DHT22;16339;48.748;2.222;2024-01-30T11:13:45;13.80;99.90
29345;DHT22;16339;48.748;2.222;2024-01-30T11:16:18;13.90;99.90
29345;DHT22;16339;48.748;2.222;2024-01-30T11:18:49;14.00;99.90
29345;DHT22;16339;48.748;2.222;2024-01-30T11:21:18;14.00;99.90
29345;DHT22;16339;48.748;2.222;2024-01-30T11:23:47;14.00;99.90
29345;DHT22;16339;48.748;2.222;2024-01-30T11:26:20;14.10;99.90
29345;DHT22;16339;48.748;2.222;2024-01-30T11:28:52;14.10;99.90
29345;DHT22;16339;48.748;2.222;2024-01-30T11:31:22;14.10;99.90
29345;DHT22;16339;48.748;2.222;2024-01-30T11:33:52;14.20;99.90
29345;DHT22;16339;48.748;2.222;2024-01-30T11:36:23;14.20;99.90
29345;DHT22;16339;48.748;2.222;2024-01-30T11:38:54;14.20;99.90
29345;DHT22;16339;48.748;2.222;2024-01-30T11:41:26;14.10;99.90
29345;DHT22;16339;48.748;2.222;2024-01-30T11:43:57;14.10;99.90
29345;DHT22;16339;48.748;2.222;2024-01-30T11:46:27;14.10;99.90
29345;DHT22;16339;48.748;2.222;2024-01-30T11:48:55;14.20;99.90
29345;DHT22;16339;48.748;2.222;2024-01-30T11:51:24;14.30;99.90
29345;DHT22;16339;48.748;2.222;2024-01-30T11:53:52;14.40;99.90
29345;DHT22;16339;48.748;2.222;2024-01-30T11:56:21;14.50;99.90
29345;DHT22;16339;48.748;2.222;2024-01-30T11:58:52;14.40;99.90
29345;DHT22;16339;48.748;2.222;2024-01-30T12:01:20;14.00;99.90
29345;DHT22;16339;48.748;2.222;2024-01-30T12:03:49;14.00;99.90
29345;DHT22;16339;48.748;2.222;2024-01-30T12:06:20;13.80;99.90
29345;DHT22;16339;48.748;2.222;2024-01-30T12:08:56;13.90;99.90
29345;DHT22;16339;48.748;2.222;2024-01-30T12:11:24;13.90;99.90
29345;DHT22;16339;48.748;2.222;2024-01-30T12:13:56;13.90;99.90
29345;DHT22;16339;48.748;2.222;2024-01-30T12:16:25;13.70;99.90
29345;DHT22;16339;48.748;2.222;2024-01-30T12:19:00;13.60;99.90
29345;DHT22;16339;48.748;2.222;2024-01-30T12:21:33;13.70;99.90
29345;DHT22;16339;48.748;2.222;2024-01-30T12:24:02;13.70;99.90
29345;DHT22;16339;48.748;2.222;2024-01-30T12:26:32;13.70;99.90
29345;DHT22;16339;48.748;2.222;2024-01-30T12:29:03;13.70;99.90
29345;DHT22;16339;48.748;2.222;2024-01-30T12:31:32;13.70;99.90
29345;DHT22;16339;48.748;2.222;2024-01-30T12:34:01;13.60;99.90
29345;DHT22;16339;48.748;2.222;2024-01-30T12:36:29;13.60;99.90
29345;DHT22;16339;48.748;2.222;2024-01-30T12:38:59;13.60;99.90
29345;DHT22;16339;48.748;2.222;2024-01-30T12:41:27;13.70;99.90
29345;DHT22;16339;48.748;2.222;2024-01-30T12:43:58;13.60;99.90
29345;DHT22;16339;48.748;2.222;2024-01-30T12:46:30;13.70;99.90
29345;DHT22;16339;48.748;2.222;2024-01-30T12:48:58;13.70;99.90
29345;DHT22;16339;48.748;2.222;2024-01-30T12:51:27;13.70;99.90
29345;DHT22;16339;48.748;2.222;2024-01-30T12:53:55;13.60;99.90
29345;DHT22;16339;48.748;2.222;2024-01-30T12:56:24;13.60;99.90
29345;DHT22;16339;48.748;2.222;2024-01-30T12:58:52;13.50;99.90
29345;DHT22;16339;48.748;2.222;2024-01-30T13:01:21;13.60;99.90
29345;DHT22;16339;48.748;2.222;2024-01-30T13:03:53;13.70;99.90
29345;DHT22;16339;48.748;2.222;2024-01-30T13:06:22;13.60;99.90
29345;DHT22;16339;48.748;2.222;2024-01-30T13:08:51;13.70;99.90
29345;DHT22;16339;48.748;2.222;2024-01-30T13:11:19;13.80;99.90
29345;DHT22;16339;48.748;2.222;2024-01-30T13:13:48;13.90;99.90
29345;DHT22;16339;48.748;2.222;2024-01-30T13:16:17;14.10;99.90
29345;DHT22;16339;48.748;2.222;2024-01-30T13:18:46;14.10;99.90
29345;DHT22;16339;48.748;2.222;2024-01-30T13:21:17;14.10;99.90
29345;DHT22;16339;48.748;2.222;2024-01-30T13:23:45;14.10;99.90
29345;DHT22;16339;48.748;2.222;2024-01-30T13:26:18;14.00;99.90
29345;DHT22;16339;48.748;2.222;2024-01-30T13:28:46;13.90;99.90
29345;DHT22;16339;48.748;2.222;2024-01-30T13:31:15;14.00;99.90
29345;DHT22;16339;48.748;2.222;2024-01-30T13:33:47;14.00;99.90
29345;DHT22;16339;48.748;2.222;2024-01-30T13:36:18;14.00;99.90
29345;DHT22;16339;48.748;2.222;2024-01-30T13:38:48;14.10;99.90
29345;DHT22;16339;48.748;2.222;2024-01-30T13:41:17;14.00;99.90
29345;DHT22;16339;48.748;2.222;2024-01-30T13:43:47;14.00;99.90
29345;DHT22;16339;48.748;2.222;2024-01-30T13:46:16;14.00;99.90
29345;DHT22;16339;48.748;2.222;2024-01-30T13:48:45;14.00;99.90
29345;DHT22;16339;48.748;2.222;2024-01-30T13:51:13;14.10;99.90
29345;DHT22;16339;48.748;2.222;2024-01-30T13:53:46;14.20;99.90
29345;DHT22;16339;48.748;2.222;2024-01-30T13:56:15;14.20;99.90
29345;DHT22;16339;48.748;2.222;2024-01-30T13:58:44;14.10;99.90
29345;DHT22;16339;48.748;2.222;2024-01-30T14:01:12;14.20;99.90
29345;DHT22;16339;48.748;2.222;2024-01-30T14:03:41;14.20;99.90
29345;DHT22;16339;48.748;2.222;2024-01-30T14:06:09;14.20;99.90
29345;DHT22;16339;48.748;2.222;2024-01-30T14:08:37;14.10;99.90
29345;DHT22;16339;48.748;2.222;2024-01-30T14:11:08;14.10;99.90
29345;DHT22;16339;48.748;2.222;2024-01-30T14:13:37;14.10;99.90
29345;DHT22;16339;48.748;2.222;2024-01-30T14:16:05;14.00;99.90
29345;DHT22;16339;48.748;2.222;2024-01-30T14:18:34;14.00;99.90
29345;DHT22;16339;48.748;2.222;2024-01-30T14:21:02;14.00;99.90
29345;DHT22;16339;48.748;2.222;2024-01-30T14:23:33;14.00;99.90
29345;DHT22;16339;48.748;2.222;2024-01-30T14:26:01;14.20;99.90
29345;DHT22;16339;48.748;2.222;2024-01-30T14:28:34;14.20;99.90
29345;DHT22;16339;48.748;2.222;2024-01-30T14:31:02;14.20;99.90
29345;DHT22;16339;48.748;2.222;2024-01-30T14:33:31;14.20;99.90
29345;DHT22;16339;48.748;2.222;2024-01-30T14:35:59;14.10;99.90
29345;DHT22;16339;48.748;2.222;2024-01-30T14:38:28;14.20;99.90
29345;DHT22;16339;48.748;2.222;2024-01-30T14:40:59;14.30;99.90
29345;DHT22;16339;48.748;2.222;2024-01-30T14:43:33;14.40;99.90
29345;DHT22;16339;48.748;2.222;2024-01-30T14:46:04;14.40;99.90
29345;DHT22;16339;48.748;2.222;2024-01-30T14:48:35;14.40;99.90
29345;DHT22;16339;48.748;2.222;2024-01-30T14:51:03;14.40;99.90
29345;DHT22;16339;48.748;2.222;2024-01-30T14:53:32;14.40;99.90
29345;DHT22;16339;48.748;2.222;2024-01-30T14:56:00;14.10;99.90
29345;DHT22;16339;48.748;2.222;2024-01-30T14:58:33;14.10;99.90
29345;DHT22;16339;48.748;2.222;2024-01-30T15:01:01;14.00;99.90
29345;DHT22;16339;48.748;2.222;2024-01-30T15:03:30;13.90;99.90
29345;DHT22;16339;48.748;2.222;2024-01-30T15:06:00;14.00;99.90
29345;DHT22;16339;48.748;2.222;2024-01-30T15:08:30;14.00;99.90
29345;DHT22;16339;48.748;2.222;2024-01-30T15:10:58;14.10;99.90
29345;DHT22;16339;48.748;2.222;2024-01-30T15:13:29;14.10;99.90
29345;DHT22;16339;48.748;2.222;2024-01-30T15:16:00;14.20;99.90
29345;DHT22;16339;48.748;2.222;2024-01-30T15:18:31;14.20;99.90
29345;DHT22;16339;48.748;2.222;2024-01-30T15:20:59;14.00;99.90
29345;DHT22;16339;48.748;2.222;2024-01-30T15:23:28;14.20;99.90
29345;DHT22;16339;48.748;2.222;2024-01-30T15:25:57;14.20;99.90
29345;DHT22;16339;48.748;2.222;2024-01-30T15:28:33;14.20;99.90
29345;DHT22;16339;48.748;2.222;2024-01-30T15:31:05;14.20;99.90
29345;DHT22;16339;48.748;2.222;2024-01-30T15:33:33;14.30;99.90
29345;DHT22;16339;48.748;2.222;2024-01-30T15:36:02;14.10;99.90
29345;DHT22;16339;48.748;2.222;2024-01-30T15:38:31;14.20;99.90
29345;DHT22;16339;48.748;2.222;2024-01-30T15:40:59;14.00;99.90
29345;DHT22;16339;48.748;2.222;2024-01-30T15:43:28;14.10;99.90